Time;durP1;ratioP1;P1;durP2;ratioP2;P2;SDS_P1;SDS_P2;PMS_P1;PMS_P2;Temp;Humidity;BMP_temperature;BMP_pressure;BME280_temperature;BME280_humidity;BME280_pressure;Samples;Min_cycle;Max_cycle;Signal;HPM_P1;HPM_P2
2022/12/07 00:01:18;;;;;;;589.85;96.40;;;2.60;99.90;;;;;;4993430;28;20052;-84
2022/12/07 00:03:47;;;;;;;858.80;127.03;;;2.50;99.90;;;;;;4980974;28;20046;-84
2022/12/07 00:06:16;;;;;;;1201.18;156.82;;;2.60;99.90;;;;;;4973112;28;20089;-84
2022/12/07 00:08:43;;;;;;;1222.85;179.98;;;2.60;99.90;;;;;;4982148;28;20045;-84
2022/12/07 00:11:13;;;;;;;1268.22;175.65;;;2.60;99.90;;;;;;4992479;28;20042;-84
2022/12/07 00:13:41;;;;;;;1314.80;183.70;;;2.60;99.90;;;;;;4976926;28;20057;-82
2022/12/07 00:16:09;;;;;;;1234.07;166.50;;;2.60;99.90;;;;;;4978171;28;20056;-83
2022/12/07 00:18:36;;;;;;;1404.50;189.18;;;2.60;99.90;;;;;;4976424;28;20806;-83
2022/12/07 00:21:18;;;;;;;1515.47;203.50;;;2.60;99.90;;;;;;4969559;28;20154;-84
2022/12/07 00:23:46;;;;;;;1213.57;168.63;;;2.60;99.90;;;;;;4977390;28;20052;-83
2022/12/07 00:26:25;;;;;;;1268.28;174.82;;;2.60;99.90;;;;;;4984032;28;20037;-84
2022/12/07 00:28:57;;;;;;;1397.00;197.45;;;2.60;99.90;;;;;;4995524;28;20064;-84
2022/12/07 00:31:27;;;;;;;1366.53;172.55;;;2.60;99.90;;;;;;5004494;28;20400;-85
2022/12/07 00:33:54;;;;;;;1495.22;211.02;;;2.60;99.90;;;;;;4992782;28;20053;-83
2022/12/07 00:36:23;;;;;;;1556.03;206.70;;;2.70;99.90;;;;;;5006859;28;20072;-84
2022/12/07 00:38:54;;;;;;;1413.22;184.52;;;2.60;99.90;;;;;;4986443;28;20056;-85
2022/12/07 00:41:23;;;;;;;1463.72;196.23;;;2.70;99.90;;;;;;4970176;28;20481;-85
2022/12/07 00:43:50;;;;;;;1307.68;176.10;;;2.70;99.90;;;;;;4975440;28;20464;-85
2022/12/07 00:46:19;;;;;;;1383.85;196.77;;;2.70;99.90;;;;;;4992924;28;20065;-85
2022/12/07 00:48:47;;;;;;;1639.95;220.05;;;2.70;99.90;;;;;;4977799;28;20038;-86
2022/12/07 00:51:15;;;;;;;1515.00;195.63;;;2.70;99.90;;;;;;4978198;28;20072;-85
2022/12/07 00:53:42;;;;;;;1332.53;184.52;;;2.70;99.90;;;;;;4981588;28;20044;-84
2022/12/07 00:56:12;;;;;;;1157.53;160.57;;;2.70;99.90;;;;;;4965430;28;20195;-85
2022/12/07 00:58:39;;;;;;;1306.97;185.10;;;2.70;99.90;;;;;;5000055;28;20048;-84
2022/12/07 01:01:07;;;;;;;1419.93;195.13;;;2.70;99.90;;;;;;4973640;28;20038;-84
2022/12/07 01:03:34;;;;;;;1401.57;189.15;;;2.70;99.90;;;;;;4978959;28;20062;-84
2022/12/07 01:06:01;;;;;;;1543.57;217.80;;;2.70;99.90;;;;;;4975716;28;20850;-85
2022/12/07 01:08:28;;;;;;;1645.85;209.90;;;2.70;99.90;;;;;;4963291;28;20055;-84
2022/12/07 01:11:07;;;;;;;1561.70;205.13;;;2.80;99.90;;;;;;4991071;28;20065;-82
2022/12/07 01:13:35;;;;;;;1617.15;218.52;;;2.80;99.90;;;;;;5001182;28;20459;-83
2022/12/07 01:16:04;;;;;;;1487.68;200.30;;;2.70;99.90;;;;;;4997615;28;20158;-85
2022/12/07 01:18:32;;;;;;;1492.18;204.90;;;2.70;99.90;;;;;;4983124;28;20043;-84
2022/12/07 01:21:01;;;;;;;1428.10;186.40;;;2.80;99.90;;;;;;4988920;28;20039;-84
2022/12/07 01:23:29;;;;;;;1468.55;199.48;;;2.80;99.90;;;;;;4987125;28;20405;-85
2022/12/07 01:26:00;;;;;;;1477.55;197.85;;;2.80;99.90;;;;;;4980592;28;20371;-82
2022/12/07 01:28:27;;;;;;;1480.15;205.52;;;2.80;99.90;;;;;;4971988;28;20515;-84
2022/12/07 01:31:02;;;;;;;1492.97;194.10;;;2.80;99.90;;;;;;4955100;28;20031;-85
2022/12/07 01:33:33;;;;;;;1585.70;217.63;;;2.80;99.90;;;;;;4984327;28;20057;-84
2022/12/07 01:36:16;;;;;;;1394.88;190.95;;;2.80;99.90;;;;;;4971813;28;20038;-84
2022/12/07 01:38:44;;;;;;;1479.57;201.52;;;2.80;99.90;;;;;;4987688;28;20050;-84
2022/12/07 01:41:12;;;;;;;1585.38;209.98;;;2.80;99.90;;;;;;4978477;28;20495;-85
2022/12/07 01:44:13;;;;;;;1606.45;221.20;;;2.90;99.90;;;;;;4976874;28;20046;-86
2022/12/07 01:46:42;;;;;;;1461.50;196.23;;;2.90;99.90;;;;;;4977049;28;20050;-86
2022/12/07 01:49:15;;;;;;;1605.72;218.57;;;2.90;99.90;;;;;;4973984;28;20133;-86
2022/12/07 01:51:43;;;;;;;1531.95;202.05;;;2.90;99.90;;;;;;4966079;28;20133;-86
2022/12/07 01:54:13;;;;;;;1528.75;202.35;;;3.00;99.90;;;;;;4985629;28;20046;-85
2022/12/07 01:56:46;;;;;;;1617.93;216.02;;;2.90;99.90;;;;;;4971842;28;20050;-86
2022/12/07 01:59:14;;;;;;;1396.38;213.40;;;2.90;99.90;;;;;;4984238;28;20081;-85
2022/12/07 02:01:41;;;;;;;1509.72;210.80;;;2.90;99.90;;;;;;4993807;28;20053;-85
2022/12/07 02:04:08;;;;;;;1403.57;203.93;;;2.90;99.90;;;;;;4986032;28;20050;-86
2022/12/07 02:06:36;;;;;;;1318.72;196.30;;;2.90;99.90;;;;;;4982289;28;20137;-85
2022/12/07 02:09:03;;;;;;;1412.47;195.60;;;2.90;99.90;;;;;;4984631;28;20134;-86
2022/12/07 02:11:30;;;;;;;1203.05;167.05;;;2.90;99.90;;;;;;4981829;28;20081;-86
2022/12/07 02:13:58;;;;;;;951.20;141.18;;;3.00;99.90;;;;;;4986799;28;20041;-84
2022/12/07 02:16:43;;;;;;;908.17;142.80;;;3.00;99.90;;;;;;4973029;28;20053;-85
2022/12/07 02:19:16;;;;;;;;;;;3.00;99.90;;;;;;4975582;28;20397;-86
2022/12/07 02:21:52;;;;;;;340.77;78.13;;;3.00;99.90;;;;;;4973146;28;19921;-84
2022/12/07 02:24:31;;;;;;;326.50;82.93;;;3.00;99.90;;;;;;4986954;28;20512;-87
2022/12/07 02:27:19;;;;;;;440.13;93.95;;;3.00;99.90;;;;;;4976783;28;20096;-85
2022/12/07 02:30:06;;;;;;;556.33;106.68;;;3.00;99.90;;;;;;4975571;28;20109;-87
2022/12/07 02:32:38;;;;;;;365.05;85.00;;;3.00;99.90;;;;;;4987136;28;20079;-87
2022/12/07 02:35:06;;;;;;;498.58;98.00;;;3.10;99.90;;;;;;4965563;28;20060;-87
2022/12/07 02:37:36;;;;;;;439.48;91.88;;;3.10;99.90;;;;;;4956580;28;20038;-85
2022/12/07 02:40:41;;;;;;;530.15;104.47;;;3.10;99.90;;;;;;4987514;28;20382;-86
2022/12/07 02:43:47;;;;;;;1113.75;162.82;;;3.10;99.90;;;;;;4975672;28;20345;-86
2022/12/07 02:46:31;;;;;;;1643.00;234.88;;;3.10;99.90;;;;;;4880308;29;20124;-85
2022/12/07 02:48:59;;;;;;;1566.28;206.07;;;3.10;99.90;;;;;;4971723;28;20050;-86
2022/12/07 02:51:30;;;;;;;1441.22;206.13;;;3.10;99.90;;;;;;4993714;28;20058;-86
2022/12/07 02:53:57;;;;;;;1273.03;182.60;;;3.10;99.90;;;;;;4991186;28;20069;-86
2022/12/07 02:56:33;;;;;;;1131.28;160.50;;;3.00;99.90;;;;;;4973364;28;20081;-87
2022/12/07 02:59:03;;;;;;;1250.47;178.05;;;3.10;99.90;;;;;;4970553;28;20050;-85
2022/12/07 03:01:38;;;;;;;1390.30;181.27;;;3.00;99.90;;;;;;4993785;28;20069;-87
2022/12/07 03:04:39;;;;;;;1351.65;194.15;;;3.10;99.90;;;;;;4980044;28;20042;-87
2022/12/07 03:07:18;;;;;;;1323.70;180.48;;;3.10;99.90;;;;;;5006833;22;20171;-75
2022/12/07 03:10:14;;;;;;;439.27;92.93;;;3.00;99.90;;;;;;5041123;28;20048;-74
2022/12/07 03:12:49;;;;;;;1087.93;150.98;;;3.10;99.90;;;;;;5015531;23;20519;-74
2022/12/07 03:15:29;;;;;;;1348.03;181.57;;;3.10;99.90;;;;;;5000657;28;20408;-73
2022/12/07 03:17:58;;;;;;;1416.90;194.35;;;3.10;99.90;;;;;;4992586;28;20303;-74
2022/12/07 03:20:28;;;;;;;1279.70;181.45;;;3.10;99.90;;;;;;5002068;28;20056;-74
2022/12/07 03:22:55;;;;;;;439.75;86.45;;;3.10;99.90;;;;;;5007788;28;20053;-74
2022/12/07 03:25:22;;;;;;;451.70;91.72;;;3.10;99.90;;;;;;4999176;28;20325;-74
2022/12/07 03:27:58;;;;;;;421.73;88.15;;;3.10;99.90;;;;;;5015311;28;20488;-74
2022/12/07 03:30:36;;;;;;;337.58;76.65;;;3.10;99.90;;;;;;4967484;28;20678;-74
2022/12/07 03:33:09;;;;;;;605.63;105.07;;;3.10;99.90;;;;;;4996841;28;20503;-74
2022/12/07 03:36:21;;;;;;;268.35;66.32;;;3.10;99.90;;;;;;4981602;28;20037;-74
2022/12/07 03:39:02;;;;;;;239.93;60.88;;;3.20;99.90;;;;;;4952305;28;20214;-74
2022/12/07 03:41:32;;;;;;;241.38;62.22;;;3.10;99.90;;;;;;5000564;28;20133;-74
2022/12/07 03:44:00;;;;;;;243.45;62.67;;;3.10;99.90;;;;;;5004967;28;20500;-75
2022/12/07 03:46:41;;;;;;;244.98;61.50;;;3.10;99.90;;;;;;5010820;28;20045;-74
2022/12/07 03:49:37;;;;;;;217.23;55.78;;;3.10;99.90;;;;;;4998671;28;20107;-74
2022/12/07 03:52:35;;;;;;;197.43;54.60;;;3.10;99.90;;;;;;5007499;28;20037;-74
2022/12/07 03:55:14;;;;;;;201.00;55.15;;;3.10;99.90;;;;;;4999902;28;20042;-74
2022/12/07 03:57:42;;;;;;;169.05;46.83;;;3.10;99.90;;;;;;5012265;28;20050;-74
2022/12/07 04:00:11;;;;;;;157.88;48.50;;;3.10;99.90;;;;;;4995677;28;20038;-74
2022/12/07 04:02:41;;;;;;;203.73;53.88;;;3.10;99.90;;;;;;4996896;28;20045;-74
2022/12/07 04:05:09;;;;;;;170.85;49.78;;;3.10;99.90;;;;;;4996731;28;20607;-73
2022/12/07 04:07:36;;;;;;;174.45;49.45;;;3.10;99.90;;;;;;4979264;28;20041;-73
2022/12/07 04:10:04;;;;;;;180.88;48.15;;;3.10;99.90;;;;;;4994113;28;20041;-73
2022/12/07 04:12:31;;;;;;;133.27;39.88;;;3.10;99.90;;;;;;5008235;28;20418;-73
2022/12/07 04:14:58;;;;;;;134.88;40.85;;;3.10;99.90;;;;;;4994259;28;20392;-73
2022/12/07 04:17:24;;;;;;;138.30;45.13;;;3.00;99.90;;;;;;4989678;28;20037;-73
2022/12/07 04:19:51;;;;;;;157.55;42.58;;;3.00;99.90;;;;;;4970209;28;20038;-73
2022/12/07 04:22:18;;;;;;;137.93;41.53;;;3.00;99.90;;;;;;5006507;28;20161;-72
2022/12/07 04:24:44;;;;;;;125.65;40.85;;;3.00;99.90;;;;;;4989216;28;20042;-73
2022/12/07 04:27:11;;;;;;;138.60;42.20;;;3.00;99.90;;;;;;5013552;28;20037;-75
2022/12/07 04:29:38;;;;;;;114.03;37.72;;;3.00;99.90;;;;;;5009389;28;20049;-73
2022/12/07 04:32:04;;;;;;;101.72;31.50;;;3.00;99.90;;;;;;4977200;28;20034;-72
2022/12/07 04:34:31;;;;;;;98.00;33.92;;;2.90;99.90;;;;;;4994884;28;20029;-73
2022/12/07 04:36:58;;;;;;;116.90;36.45;;;2.90;99.90;;;;;;4994676;28;20042;-73
2022/12/07 04:39:29;;;;;;;120.30;35.35;;;3.00;99.90;;;;;;4999963;28;20044;-73
2022/12/07 04:41:57;;;;;;;140.10;42.10;;;3.00;99.90;;;;;;5010763;28;20508;-73
2022/12/07 04:44:25;;;;;;;148.35;42.33;;;3.00;99.90;;;;;;4986432;28;20511;-72
2022/12/07 04:46:53;;;;;;;149.57;42.17;;;3.00;99.90;;;;;;5003626;28;20050;-73
2022/12/07 04:49:21;;;;;;;126.70;39.33;;;3.00;99.90;;;;;;4991674;28;20469;-73
2022/12/07 04:51:47;;;;;;;133.77;38.90;;;2.90;99.90;;;;;;4973272;28;20077;-73
2022/12/07 04:54:15;;;;;;;126.68;38.22;;;2.90;99.90;;;;;;4988484;28;20523;-73
2022/12/07 04:56:42;;;;;;;106.85;34.83;;;2.80;99.90;;;;;;4989173;28;20088;-73
2022/12/07 04:59:11;;;;;;;133.32;36.45;;;2.80;99.90;;;;;;5002703;28;20044;-73
2022/12/07 05:01:38;;;;;;;132.18;40.70;;;2.80;99.90;;;;;;5009018;28;20045;-73
2022/12/07 05:04:05;;;;;;;141.50;40.40;;;2.90;99.90;;;;;;4982785;28;20046;-72
2022/12/07 05:06:32;;;;;;;117.53;38.28;;;2.90;99.90;;;;;;4998966;28;20038;-73
2022/12/07 05:08:58;;;;;;;137.45;41.70;;;2.90;99.90;;;;;;4996414;28;20050;-73
2022/12/07 05:11:40;;;;;;;133.98;42.50;;;2.90;99.90;;;;;;4996409;28;20551;-73
2022/12/07 05:14:11;;;;;;;156.50;42.08;;;2.90;99.90;;;;;;5016520;28;20041;-72
2022/12/07 05:16:39;;;;;;;139.80;40.53;;;2.90;99.90;;;;;;5002553;28;20048;-73
2022/12/07 05:19:06;;;;;;;129.23;40.30;;;2.90;99.90;;;;;;4995007;28;20130;-75
2022/12/07 05:21:33;;;;;;;119.30;37.33;;;2.80;99.90;;;;;;4991249;28;20085;-75
2022/12/07 05:24:00;;;;;;;135.02;43.17;;;2.80;99.90;;;;;;5004468;28;20495;-75
2022/12/07 05:26:28;;;;;;;136.05;38.95;;;2.80;99.90;;;;;;4979316;28;20042;-73
2022/12/07 05:28:56;;;;;;;132.27;41.53;;;2.80;99.90;;;;;;5010176;28;20053;-73
2022/12/07 05:31:24;;;;;;;134.45;40.75;;;2.80;99.90;;;;;;5000060;28;20042;-72
2022/12/07 05:33:51;;;;;;;160.52;44.92;;;2.80;99.90;;;;;;4985235;28;20101;-73
2022/12/07 05:36:18;;;;;;;161.43;47.03;;;2.80;99.90;;;;;;5003257;28;20037;-72
2022/12/07 05:38:45;;;;;;;162.68;43.65;;;2.80;99.90;;;;;;5011391;28;20211;-73
2022/12/07 05:44:01;;;;;;;170.40;46.40;;;2.80;99.90;;;;;;5019753;28;20045;-73
2022/12/07 05:46:28;;;;;;;161.13;45.83;;;2.80;99.90;;;;;;5007320;28;20045;-73
2022/12/07 05:48:55;;;;;;;159.25;43.70;;;2.70;99.90;;;;;;5003848;28;20113;-73
2022/12/07 05:51:22;;;;;;;216.68;51.40;;;2.70;99.90;;;;;;4989897;28;20054;-73
2022/12/07 05:53:48;;;;;;;162.65;43.40;;;2.70;99.90;;;;;;4995305;28;20511;-73
2022/12/07 05:56:15;;;;;;;199.10;49.10;;;2.70;99.90;;;;;;5002984;28;20050;-74
2022/12/07 06:01:27;;;;;;;161.75;45.65;;;2.70;99.90;;;;;;5007504;28;20874;-73
2022/12/07 06:03:54;;;;;;;168.02;47.65;;;2.60;99.90;;;;;;5002219;28;20085;-73
2022/12/07 06:06:21;;;;;;;211.43;52.97;;;2.60;99.90;;;;;;4995442;28;20038;-73
2022/12/07 06:08:47;;;;;;;224.80;57.22;;;2.60;99.90;;;;;;4997688;28;20077;-73
2022/12/07 06:13:59;;;;;;;282.88;63.42;;;2.60;99.90;;;;;;5008758;28;20065;-73
2022/12/07 06:16:26;;;;;;;259.60;60.00;;;2.60;99.90;;;;;;4994849;28;20524;-73
2022/12/07 06:18:53;;;;;;;259.27;59.30;;;2.60;99.90;;;;;;4997342;28;20439;-73
2022/12/07 06:21:20;;;;;;;275.63;60.50;;;2.60;99.90;;;;;;4993537;28;20038;-73
2022/12/07 06:23:47;;;;;;;226.70;60.15;;;2.60;99.90;;;;;;4981345;28;20037;-73
2022/12/07 06:26:15;;;;;;;230.05;59.13;;;2.60;99.90;;;;;;4986557;28;20053;-73
2022/12/07 06:28:42;;;;;;;225.32;56.15;;;2.60;99.90;;;;;;4980004;28;20058;-73
2022/12/07 06:31:09;;;;;;;229.98;60.65;;;2.60;99.90;;;;;;5006911;28;20416;-73
2022/12/07 06:33:40;;;;;;;190.48;53.80;;;2.60;99.90;;;;;;4983139;28;20139;-73
2022/12/07 06:36:07;;;;;;;168.80;48.47;;;2.50;99.90;;;;;;5001203;28;20026;-74
2022/12/07 06:38:34;;;;;;;143.65;43.42;;;2.60;99.90;;;;;;5006538;28;20428;-73
2022/12/07 06:41:00;;;;;;;134.13;41.17;;;2.50;99.90;;;;;;4992509;28;20042;-73
2022/12/07 06:43:27;;;;;;;153.68;43.63;;;2.50;99.90;;;;;;5001632;28;20050;-73
2022/12/07 06:45:54;;;;;;;140.15;40.75;;;2.50;99.90;;;;;;4999684;28;20041;-74
2022/12/07 06:48:20;;;;;;;170.75;46.42;;;2.50;99.90;;;;;;4977683;28;20113;-73
2022/12/07 06:50:48;;;;;;;180.13;48.03;;;2.50;99.90;;;;;;4995274;28;20038;-72
2022/12/07 06:53:20;;;;;;;186.88;51.33;;;2.50;99.90;;;;;;4998375;28;20050;-72
2022/12/07 06:55:47;;;;;;;167.40;47.72;;;2.60;99.90;;;;;;4989194;28;20606;-73
2022/12/07 06:58:14;;;;;;;174.65;45.92;;;2.60;99.90;;;;;;4991554;28;20050;-72
2022/12/07 07:00:40;;;;;;;175.45;50.35;;;2.60;99.90;;;;;;5006612;28;20164;-73
2022/12/07 07:03:07;;;;;;;185.45;49.40;;;2.50;99.90;;;;;;5000553;28;20068;-75
2022/12/07 07:05:34;;;;;;;236.40;59.13;;;2.60;99.90;;;;;;4995019;28;20114;-75
2022/12/07 07:08:01;;;;;;;217.45;55.00;;;2.60;99.90;;;;;;5000039;28;20092;-73
2022/12/07 07:10:47;;;;;;;260.67;62.15;;;2.60;99.90;;;;;;5007436;28;20044;-73
2022/12/07 07:13:14;;;;;;;232.98;57.30;;;2.50;99.90;;;;;;4974240;28;20512;-73
2022/12/07 07:15:41;;;;;;;235.73;58.30;;;2.60;99.90;;;;;;4967157;28;20037;-73
2022/12/07 07:18:07;;;;;;;249.90;57.20;;;2.50;99.90;;;;;;4997623;28;20042;-73
2022/12/07 07:20:34;;;;;;;231.80;55.33;;;2.50;99.90;;;;;;4988112;28;20060;-74
2022/12/07 07:23:01;;;;;;;187.02;48.38;;;2.50;99.90;;;;;;4990131;28;20039;-74
2022/12/07 07:25:28;;;;;;;192.75;51.88;;;2.50;99.90;;;;;;4998030;28;20056;-74
2022/12/07 07:27:55;;;;;;;147.75;43.45;;;2.50;99.90;;;;;;4995591;28;20416;-74
2022/12/07 07:30:22;;;;;;;148.88;44.03;;;2.50;99.90;;;;;;4994478;28;20052;-74
2022/12/07 07:32:49;;;;;;;146.40;43.22;;;2.50;99.90;;;;;;5008092;28;20114;-74
2022/12/07 07:35:16;;;;;;;159.77;48.25;;;2.40;99.90;;;;;;4976377;28;20034;-74
2022/12/07 07:37:43;;;;;;;167.98;49.25;;;2.50;99.90;;;;;;4995322;28;20057;-74
2022/12/07 07:40:10;;;;;;;195.30;51.33;;;2.40;99.90;;;;;;4996963;28;20316;-74
2022/12/07 07:42:37;;;;;;;199.27;53.72;;;2.40;99.90;;;;;;4995987;28;20041;-74
2022/12/07 07:45:04;;;;;;;220.07;55.35;;;2.40;99.90;;;;;;4982813;28;20488;-74
2022/12/07 07:47:31;;;;;;;151.20;45.22;;;2.50;99.90;;;;;;4984619;28;20046;-74
2022/12/07 07:49:57;;;;;;;179.25;48.17;;;2.50;99.90;;;;;;5010523;28;20052;-73
2022/12/07 07:52:24;;;;;;;295.65;64.82;;;2.40;99.90;;;;;;5026795;28;20084;-73
2022/12/07 07:54:51;;;;;;;232.77;63.20;;;2.40;99.90;;;;;;5018398;28;20022;-74
2022/12/07 07:57:17;;;;;;;266.27;63.90;;;2.50;99.90;;;;;;5006661;28;20051;-74
2022/12/07 07:59:44;;;;;;;259.13;64.63;;;2.50;99.90;;;;;;4988231;28;20049;-73
2022/12/07 08:02:19;;;;;;;156.90;45.28;;;2.40;99.90;;;;;;4983493;28;20041;-73
2022/12/07 08:04:46;;;;;;;182.93;53.50;;;2.40;99.90;;;;;;4977908;28;20050;-73
2022/12/07 08:07:14;;;;;;;198.75;53.20;;;2.40;99.90;;;;;;4987176;28;20044;-74
2022/12/07 08:09:41;;;;;;;227.40;62.38;;;2.40;99.90;;;;;;4991279;28;20572;-74
2022/12/07 08:12:08;;;;;;;192.13;55.25;;;2.40;99.90;;;;;;4992782;28;20042;-74
2022/12/07 08:14:35;;;;;;;234.57;62.03;;;2.40;99.90;;;;;;4983130;28;20053;-73
2022/12/07 08:17:01;;;;;;;215.93;57.75;;;2.40;99.90;;;;;;4984496;28;20034;-72
2022/12/07 08:19:28;;;;;;;168.77;45.75;;;2.40;99.90;;;;;;4984564;28;20435;-72
2022/12/07 08:21:56;;;;;;;173.02;48.08;;;2.40;99.90;;;;;;4999726;28;20052;-72
2022/12/07 08:24:24;;;;;;;189.55;52.92;;;2.30;99.90;;;;;;4982050;28;20050;-72
2022/12/07 08:26:51;;;;;;;224.75;56.58;;;2.40;99.90;;;;;;4986979;28;20049;-72
2022/12/07 08:29:18;;;;;;;197.38;52.28;;;2.40;99.90;;;;;;4981892;28;20053;-71
2022/12/07 08:31:45;;;;;;;194.38;52.78;;;2.40;99.90;;;;;;5010534;28;20539;-75
2022/12/07 08:34:12;;;;;;;159.20;49.33;;;2.40;99.90;;;;;;4983525;28;20397;-74
2022/12/07 08:36:39;;;;;;;151.82;46.28;;;2.40;99.90;;;;;;4986713;28;20042;-74
2022/12/07 08:39:06;;;;;;;144.27;43.45;;;2.30;99.90;;;;;;4994382;28;20413;-76
2022/12/07 08:41:53;;;;;;;161.10;45.28;;;2.30;99.90;;;;;;4997119;28;20060;-73
2022/12/07 08:44:20;;;;;;;149.23;44.53;;;2.30;99.90;;;;;;5008985;28;20054;-73
2022/12/07 08:46:51;;;;;;;171.98;47.47;;;2.30;99.90;;;;;;4969694;28;20053;-73
2022/12/07 08:49:33;;;;;;;185.23;50.92;;;2.30;99.90;;;;;;4982323;28;20050;-73
2022/12/07 08:51:59;;;;;;;170.75;47.78;;;2.30;99.90;;;;;;4973686;28;20061;-73
2022/12/07 08:54:28;;;;;;;201.80;54.05;;;2.30;99.90;;;;;;5000060;28;20030;-73
2022/12/07 08:56:55;;;;;;;235.23;55.75;;;2.30;99.90;;;;;;5002099;28;20408;-73
2022/12/07 08:59:26;;;;;;;211.95;58.83;;;2.40;99.90;;;;;;4997664;28;20523;-73
2022/12/07 09:01:53;;;;;;;246.88;58.05;;;2.40;99.90;;;;;;4970355;28;20522;-73
2022/12/07 09:04:20;;;;;;;260.20;57.92;;;2.40;99.90;;;;;;4999204;28;20064;-73
2022/12/07 09:06:47;;;;;;;301.50;63.60;;;2.30;99.90;;;;;;4987031;28;20056;-73
2022/12/07 09:09:15;;;;;;;220.20;56.15;;;2.40;99.90;;;;;;5001630;28;20488;-74
2022/12/07 09:11:42;;;;;;;199.85;53.67;;;2.40;99.90;;;;;;5013026;23;20053;-79
2022/12/07 09:14:08;;;;;;;191.68;49.63;;;2.40;99.90;;;;;;5018323;28;20367;-78
2022/12/07 09:16:35;;;;;;;176.88;45.85;;;2.30;99.90;;;;;;5010069;28;20069;-78
2022/12/07 09:19:02;;;;;;;164.90;45.95;;;2.30;99.90;;;;;;4982444;28;20101;-78
2022/12/07 09:21:29;;;;;;;177.93;50.63;;;2.30;99.90;;;;;;4997970;28;20042;-77
2022/12/07 09:23:56;;;;;;;156.38;46.10;;;2.30;99.90;;;;;;4975828;28;20389;-79
2022/12/07 09:26:22;;;;;;;184.75;49.80;;;2.30;99.90;;;;;;4975511;28;20557;-78
2022/12/07 09:28:49;;;;;;;180.27;49.45;;;2.30;99.90;;;;;;4991007;28;20569;-78
2022/12/07 09:31:17;;;;;;;154.63;45.08;;;2.30;99.90;;;;;;4974062;28;20137;-78
2022/12/07 09:33:59;;;;;;;175.07;48.83;;;2.30;99.90;;;;;;4970499;28;20073;-78
2022/12/07 09:36:28;;;;;;;178.98;48.90;;;2.30;99.90;;;;;;4990325;28;20049;-78
2022/12/07 09:38:55;;;;;;;162.95;45.90;;;2.30;99.90;;;;;;4981009;28;20101;-78
2022/12/07 09:41:24;;;;;;;148.18;44.72;;;2.40;99.90;;;;;;4992708;28;20035;-78
2022/12/07 09:43:52;;;;;;;161.10;45.28;;;2.40;99.90;;;;;;4974788;28;20053;-78
2022/12/07 09:46:20;;;;;;;133.27;43.30;;;2.40;99.90;;;;;;4981385;28;20199;-79
2022/12/07 09:48:49;;;;;;;153.30;45.63;;;2.40;99.90;;;;;;4976791;28;20105;-79
2022/12/07 09:51:21;;;;;;;169.18;49.75;;;2.40;99.90;;;;;;4993894;28;20035;-78
2022/12/07 09:53:57;;;;;;;156.48;49.35;;;2.40;99.90;;;;;;4976427;28;20606;-78
2022/12/07 09:56:24;;;;;;;140.43;46.33;;;2.40;99.90;;;;;;4989812;28;20042;-77
2022/12/07 09:59:01;;;;;;;138.05;45.80;;;2.40;99.90;;;;;;4976332;28;20046;-78
2022/12/07 10:01:30;;;;;;;153.52;46.63;;;2.40;99.90;;;;;;4980044;28;20109;-78
2022/12/07 10:04:10;;;;;;;151.45;46.75;;;2.50;99.90;;;;;;4970032;28;20050;-78
2022/12/07 10:06:36;;;;;;;134.52;41.60;;;2.40;99.90;;;;;;4985349;28;20084;-78
2022/12/07 10:09:10;;;;;;;136.18;46.30;;;2.40;99.90;;;;;;4997494;28;20061;-77
2022/12/07 10:11:59;;;;;;;143.68;42.88;;;2.40;99.90;;;;;;5001971;28;20050;-78
2022/12/07 10:14:29;;;;;;;121.97;42.30;;;2.50;99.90;;;;;;4988086;28;20043;-78
2022/12/07 10:17:28;;;;;;;125.88;42.47;;;2.50;99.90;;;;;;4981271;28;20113;-77
2022/12/07 10:20:23;;;;;;;133.45;41.58;;;2.50;99.90;;;;;;4984191;28;20044;-77
2022/12/07 10:23:15;;;;;;;124.68;43.42;;;2.50;99.90;;;;;;4984235;28;20033;-78
2022/12/07 10:25:42;;;;;;;117.03;42.33;;;2.60;99.90;;;;;;4986936;28;20495;-77
2022/12/07 10:28:15;;;;;;;123.22;45.08;;;2.60;99.90;;;;;;4988363;28;20403;-78
2022/12/07 10:31:03;;;;;;;128.85;42.58;;;2.60;99.90;;;;;;4989510;28;20061;-78
2022/12/07 10:33:37;;;;;;;116.63;41.22;;;2.60;99.90;;;;;;4988662;28;20114;-78
2022/12/07 10:36:35;;;;;;;105.30;40.05;;;2.60;99.90;;;;;;4971441;28;20125;-77
2022/12/07 10:39:22;;;;;;;120.63;42.83;;;2.60;99.90;;;;;;4949237;28;20049;-78
2022/12/07 10:41:57;;;;;;;106.03;39.97;;;2.60;99.90;;;;;;4976113;28;20046;-77
2022/12/07 10:44:34;;;;;;;112.60;40.75;;;2.60;99.90;;;;;;4971972;28;20483;-77
2022/12/07 10:47:12;;;;;;;108.93;44.50;;;2.70;99.90;;;;;;4990441;28;20069;-77
2022/12/07 10:50:01;;;;;;;119.93;47.42;;;2.70;99.90;;;;;;4986898;28;20049;-77
2022/12/07 10:52:58;;;;;;;118.35;45.15;;;2.70;99.90;;;;;;4965326;28;20057;-76
2022/12/07 10:55:52;;;;;;;108.57;42.38;;;2.70;99.90;;;;;;4984701;28;20050;-78
2022/12/07 10:58:34;;;;;;;121.95;43.22;;;2.70;99.90;;;;;;4984701;28;20050;-76
2022/12/07 11:01:17;;;;;;;109.97;42.15;;;2.70;99.90;;;;;;4981572;28;20043;-77
2022/12/07 11:04:14;;;;;;;120.47;45.35;;;2.70;99.90;;;;;;4965619;28;20133;-76
2022/12/07 11:07:09;;;;;;;123.70;45.33;;;2.70;99.90;;;;;;4980387;28;20048;-76
2022/12/07 11:09:54;;;;;;;113.10;42.75;;;2.70;99.90;;;;;;4977671;28;20061;-77
2022/12/07 11:12:55;;;;;;;112.63;45.15;;;2.70;99.90;;;;;;4979022;28;20042;-77
2022/12/07 11:15:29;;;;;;;123.68;43.42;;;2.80;99.90;;;;;;4985625;28;20058;-76
2022/12/07 11:18:14;;;;;;;107.65;44.90;;;2.80;99.90;;;;;;4975179;28;20082;-77
2022/12/07 11:21:09;;;;;;;107.82;40.30;;;2.80;99.90;;;;;;4977721;28;20149;-76
2022/12/07 11:24:22;;;;;;;118.65;43.83;;;2.80;99.90;;;;;;4978276;28;20157;-77
2022/12/07 11:27:00;;;;;;;99.03;39.90;;;2.90;99.90;;;;;;4941419;28;20058;-76
2022/12/07 11:29:41;;;;;;;103.38;39.70;;;2.90;99.90;;;;;;4979644;28;20054;-74
2022/12/07 11:32:36;;;;;;;94.07;39.80;;;3.00;99.90;;;;;;4980458;28;20062;-76
2022/12/07 11:35:08;;;;;;;91.35;39.00;;;3.00;99.90;;;;;;4976789;28;20042;-76
2022/12/07 11:37:37;;;;;;;94.72;40.30;;;2.90;99.90;;;;;;4993782;28;20046;-76
2022/12/07 11:40:27;;;;;;;87.85;38.05;;;2.90;99.90;;;;;;4991265;28;20145;-76
2022/12/07 11:43:05;;;;;;;82.35;36.42;;;3.00;99.90;;;;;;4991071;28;20042;-75
2022/12/07 11:45:40;;;;;;;74.22;34.13;;;2.90;99.90;;;;;;4994120;28;20049;-75
2022/12/07 11:48:14;;;;;;;79.88;35.63;;;2.90;99.90;;;;;;4969951;28;20045;-76
2022/12/07 11:50:42;;;;;;;82.72;36.72;;;3.00;99.90;;;;;;4980976;28;20076;-75
2022/12/07 11:53:09;;;;;;;100.53;40.45;;;3.00;99.90;;;;;;4986124;28;20116;-76
2022/12/07 11:55:41;;;;;;;70.50;31.85;;;3.00;99.90;;;;;;4994969;28;20223;-76
2022/12/07 11:58:37;;;;;;;91.25;40.35;;;3.00;99.90;;;;;;4979178;28;20252;-76
2022/12/07 12:01:16;;;;;;;86.90;32.88;;;3.00;99.90;;;;;;4986353;28;20699;-76
2022/12/07 12:03:57;;;;;;;78.25;35.15;;;3.00;99.90;;;;;;4981950;28;20046;-75
2022/12/07 12:06:24;;;;;;;79.05;36.40;;;3.00;99.90;;;;;;4983972;28;20042;-75
2022/12/07 12:09:26;;;;;;;68.32;31.65;;;3.10;99.90;;;;;;4991770;28;20179;-76
2022/12/07 12:12:18;;;;;;;67.95;29.20;;;3.10;99.90;;;;;;4901914;29;20051;-76
2022/12/07 12:15:37;;;;;;;;;;;3.10;99.90;;;;;;4969147;28;20547;-75
2022/12/07 12:18:31;;;;;;;66.05;31.77;;;3.00;99.90;;;;;;4935259;28;19993;-76
2022/12/07 12:21:04;;;;;;;72.00;33.05;;;3.10;99.90;;;;;;4979512;28;20046;-76
2022/12/07 12:23:44;;;;;;;79.13;36.85;;;3.10;99.90;;;;;;4985535;28;20168;-76
2022/12/07 12:26:23;;;;;;;67.43;36.00;;;3.10;99.90;;;;;;4989792;28;20053;-76
2022/12/07 12:28:58;;;;;;;65.75;36.30;;;3.10;99.90;;;;;;4979995;28;20285;-76
2022/12/07 12:31:32;;;;;;;;;;;3.20;99.90;;;;;;4985127;28;20499;-75
2022/12/07 12:34:02;;;;;;;77.30;35.55;;;3.20;99.90;;;;;;4987491;28;19937;-75
2022/12/07 12:36:35;;;;;;;74.75;36.90;;;3.20;99.90;;;;;;4966807;28;20664;-76
2022/12/07 12:39:10;;;;;;;66.75;34.72;;;3.20;99.90;;;;;;4974121;28;20054;-76
2022/12/07 12:41:38;;;;;;;70.72;33.45;;;3.20;99.90;;;;;;4993138;28;20045;-76
2022/12/07 12:44:19;;;;;;;58.38;31.00;;;3.20;99.90;;;;;;4994792;28;20038;-75
2022/12/07 12:46:52;;;;;;;56.70;28.67;;;3.20;99.90;;;;;;4986937;28;20038;-76
2022/12/07 12:49:21;;;;;;;48.92;26.27;;;3.20;99.90;;;;;;4993715;28;20049;-76
2022/12/07 12:51:50;;;;;;;47.88;27.17;;;3.20;99.90;;;;;;4987335;28;20131;-76
2022/12/07 12:54:29;;;;;;;47.35;26.45;;;3.30;99.90;;;;;;4988258;28;20048;-76
2022/12/07 12:57:15;;;;;;;45.80;24.65;;;3.30;99.90;;;;;;4983385;28;20034;-75
2022/12/07 12:59:56;;;;;;;45.90;27.00;;;3.30;99.90;;;;;;4981265;28;20046;-75
2022/12/07 13:02:26;;;;;;;40.90;21.95;;;3.30;99.90;;;;;;4983888;28;20051;-75